Time;durP1;ratioP1;P1;durP2;ratioP2;P2;SDS_P1;SDS_P2;PMS_P1;PMS_P2;Temp;Humidity;BMP_temperature;BMP_pressure;BME280_temperature;BME280_humidity;BME280_pressure;Samples;Min_cycle;Max_cycle;Signal;HPM_P1;HPM_P2
2022/09/11 00:00:59;;;;;;;13.40;6.37;;;;;;;13.05;100.00;99124.00;1710001;82;21094;-73
2022/09/11 00:03:26;;;;;;;11.93;7.58;;;;;;;13.08;100.00;99112.95;1705342;82;21062;-71
2022/09/11 00:05:53;;;;;;;10.43;6.33;;;;;;;13.05;100.00;99111.48;1709000;82;21022;-72
2022/09/11 00:10:09;;;;;;;10.30;7.70;;;;;;;13.08;98.96;99107.62;1790469;79;28150;-73
2022/09/11 00:12:35;;;;;;;10.78;7.40;;;;;;;13.02;100.00;99130.56;1728266;81;20998;-71
2022/09/11 00:15:03;;;;;;;8.60;7.12;;;;;;;13.06;100.00;99137.14;1734703;82;21259;-72
2022/09/11 00:17:30;;;;;;;10.48;7.92;;;;;;;13.05;99.35;99104.00;1709799;82;22118;-72
2022/09/11 00:19:56;;;;;;;11.03;7.90;;;;;;;13.06;99.65;99098.48;1726326;82;21009;-71
2022/09/11 00:22:23;;;;;;;10.68;7.37;;;;;;;13.06;100.00;99119.81;1710896;82;21044;-73
2022/09/11 00:24:49;;;;;;;9.33;6.70;;;;;;;13.07;99.79;99089.44;1726426;82;21053;-72
2022/09/11 00:27:16;;;;;;;10.93;7.92;;;;;;;13.08;99.99;99098.28;1730362;82;21287;-71
2022/09/11 00:29:42;;;;;;;16.57;8.20;;;;;;;13.07;99.95;99088.11;1716343;82;21007;-72
2022/09/11 00:32:09;;;;;;;10.20;7.70;;;;;;;13.09;100.00;99094.06;1741572;82;21049;-70
2022/09/11 00:34:37;;;;;;;10.13;7.37;;;;;;;13.13;100.00;99098.00;1725375;82;21083;-72
2022/09/11 00:37:04;;;;;;;10.30;7.97;;;;;;;13.12;100.00;99099.00;1746635;82;21038;-71
2022/09/11 00:39:32;;;;;;;10.68;7.20;;;;;;;13.11;100.00;99093.87;1733395;82;22062;-70
2022/09/11 00:41:58;;;;;;;12.30;7.95;;;;;;;13.08;100.00;99093.77;1745375;82;21534;-69
2022/09/11 00:44:31;;;;;;;12.78;8.03;;;;;;;13.06;100.00;99099.00;1721047;82;21109;-70
2022/09/11 00:47:01;;;;;;;13.15;8.28;;;;;;;13.06;100.00;99085.14;1718364;82;21068;-70
2022/09/11 00:49:38;;;;;;;11.57;7.83;;;;;;;13.08;100.00;99079.10;1730352;82;21077;-70
2022/09/11 00:52:15;;;;;;;10.20;8.28;;;;;;;13.07;100.00;99077.96;1725173;82;21159;-70
2022/09/11 00:54:53;;;;;;;13.72;9.05;;;;;;;13.08;100.00;99090.28;1704575;82;21096;-70
2022/09/11 00:57:22;;;;;;;10.82;8.63;;;;;;;12.99;100.00;99072.30;1719566;82;21500;-71
2022/09/11 00:59:49;;;;;;;12.95;7.72;;;;;;;12.95;100.00;99077.72;1717674;82;21054;-73
2022/09/11 01:02:18;;;;;;;10.20;8.03;;;;;;;12.94;100.00;99076.91;1722247;82;21502;-71
2022/09/11 01:04:44;;;;;;;8.80;7.90;;;;;;;12.95;100.00;99076.39;1718422;82;21149;-75
2022/09/11 01:07:12;;;;;;;9.60;7.55;;;;;;;12.92;100.00;99076.28;1730263;82;21034;-72
2022/09/11 01:09:39;;;;;;;11.45;7.37;;;;;;;12.92;100.00;99077.62;1709414;83;21088;-74
2022/09/11 01:12:15;;;;;;;8.80;7.62;;;;;;;12.90;100.00;99079.66;1694681;83;21128;-74
2022/09/11 01:15:04;;;;;;;12.37;8.55;;;;;;;12.89;100.00;99081.19;1707836;83;21092;-74
2022/09/11 01:17:54;;;;;;;8.23;7.12;;;;;;;12.89;100.00;99089.19;1725164;83;23047;-75
2022/09/11 01:20:42;;;;;;;12.70;8.13;;;;;;;12.88;100.00;99067.53;1704555;83;21042;-74
2022/09/11 01:23:21;;;;;;;9.70;7.05;;;;;;;12.82;100.00;99097.66;1695480;82;21082;-73
2022/09/11 01:26:06;;;;;;;10.25;7.55;;;;;;;12.84;100.00;99070.29;1715272;83;21048;-74
2022/09/11 01:28:46;;;;;;;9.28;8.28;;;;;;;12.86;100.00;99075.72;1697196;83;21135;-74
2022/09/11 01:31:14;;;;;;;10.08;8.38;;;;;;;12.83;100.00;99069.48;1705213;83;21196;-72
2022/09/11 01:33:49;;;;;;;12.40;8.25;;;;;;;12.87;100.00;99074.72;1723108;83;21091;-71
2022/09/11 01:36:20;;;;;;;12.60;8.08;;;;;;;12.90;100.00;99061.00;1720730;83;21528;-72
2022/09/11 01:38:59;;;;;;;10.15;8.93;;;;;;;12.90;100.00;99059.67;1711396;83;21044;-73
2022/09/11 01:41:34;;;;;;;11.65;8.35;;;;;;;12.89;100.00;99058.02;1723704;83;21063;-73
2022/09/11 01:44:21;;;;;;;12.40;8.50;;;;;;;12.94;100.00;99066.73;1727926;83;21652;-72
2022/09/11 01:46:50;;;;;;;9.98;8.70;;;;;;;12.95;100.00;99061.20;1725757;83;21037;-73
2022/09/11 01:49:36;;;;;;;11.50;8.35;;;;;;;12.96;100.00;99053.53;1711730;83;21114;-72
2022/09/11 01:52:07;;;;;;;10.85;8.83;;;;;;;12.94;100.00;99068.91;1715713;83;21108;-72
2022/09/11 01:54:41;;;;;;;9.40;7.97;;;;;;;12.99;100.00;99055.78;1698995;83;21455;-71
2022/09/11 01:57:21;;;;;;;11.00;8.13;;;;;;;13.01;100.00;99056.92;1705989;83;21556;-73
2022/09/11 01:59:52;;;;;;;8.85;7.75;;;;;;;13.05;100.00;99068.01;1706397;83;21214;-73
2022/09/11 02:02:23;;;;;;;9.98;7.65;;;;;;;13.07;100.00;99064.11;1714781;83;21228;-72
2022/09/11 02:04:55;;;;;;;9.53;6.78;;;;;;;13.08;100.00;99051.10;1712566;83;21056;-70
2022/09/11 02:07:32;;;;;;;6.75;6.15;;;;;;;13.10;100.00;99043.72;1725228;83;21091;-72
2022/09/11 02:10:03;;;;;;;9.73;7.35;;;;;;;13.14;100.00;99062.29;1715982;82;21113;-72
2022/09/11 02:12:47;;;;;;;7.55;6.60;;;;;;;13.14;100.00;99042.81;1717620;82;21057;-73
2022/09/11 02:15:14;;;;;;;7.08;6.33;;;;;;;13.13;100.00;99045.16;1698594;82;21267;-72
2022/09/11 02:18:02;;;;;;;7.10;6.40;;;;;;;13.15;100.00;99038.61;1711253;82;21459;-71
2022/09/11 02:20:30;;;;;;;6.85;6.15;;;;;;;13.17;100.00;99035.23;1713714;82;21105;-72
2022/09/11 02:22:57;;;;;;;7.95;5.90;;;;;;;13.15;100.00;99035.95;1718602;82;21129;-70
2022/09/11 02:25:24;;;;;;;7.83;5.90;;;;;;;13.16;100.00;99036.77;1727294;82;21030;-72
2022/09/11 02:27:53;;;;;;;8.08;6.35;;;;;;;13.15;100.00;99041.77;1704164;82;21121;-72
2022/09/11 02:30:20;;;;;;;6.80;6.08;;;;;;;13.17;100.00;99037.05;1720077;82;21066;-69
2022/09/11 02:32:47;;;;;;;6.45;5.85;;;;;;;13.24;100.00;99041.08;1711707;82;21033;-73
2022/09/11 02:35:15;;;;;;;6.47;5.65;;;;;;;13.27;100.00;99035.33;1716434;82;21902;-71
2022/09/11 02:38:06;;;;;;;6.28;5.70;;;;;;;13.30;100.00;99046.97;1716073;82;21336;-70
2022/09/11 02:40:48;;;;;;;6.25;5.65;;;;;;;13.33;100.00;99048.72;1707679;82;21011;-73
2022/09/11 02:43:48;;;;;;;6.78;5.40;;;;;;;13.33;100.00;99051.39;1713480;82;21030;-71
2022/09/11 02:46:35;;;;;;;5.50;4.78;;;;;;;13.30;100.00;99046.45;1718433;82;21125;-72
2022/09/11 02:49:28;;;;;;;4.67;4.10;;;;;;;13.34;100.00;99052.20;1729722;82;21236;-74
2022/09/11 02:52:17;;;;;;;5.22;4.72;;;;;;;13.34;100.00;99069.55;1713701;82;21034;-72
2022/09/11 02:55:07;;;;;;;5.53;4.50;;;;;;;13.35;100.00;99043.19;1707149;82;20991;-71
2022/09/11 02:57:42;;;;;;;6.03;5.53;;;;;;;13.38;100.00;99048.10;1723834;82;21020;-74
2022/09/11 03:00:12;;;;;;;5.72;5.12;;;;;;;13.39;100.00;99047.09;1716505;82;21110;-73
2022/09/11 03:02:41;;;;;;;5.20;4.70;;;;;;;13.44;100.00;99057.14;1729157;82;21137;-73
2022/09/11 03:05:09;;;;;;;5.92;4.70;;;;;;;13.45;100.00;99059.61;1697887;82;21050;-74
2022/09/11 03:07:36;;;;;;;6.37;4.85;;;;;;;13.49;100.00;99051.50;1714462;82;21021;-72
2022/09/11 03:10:05;;;;;;;5.72;5.10;;;;;;;13.53;100.00;99054.07;1714098;82;21068;-72
2022/09/11 03:12:33;;;;;;;5.70;4.80;;;;;;;13.57;100.00;99067.31;1720661;82;21004;-75
2022/09/11 03:15:00;;;;;;;5.40;5.00;;;;;;;13.59;100.00;99080.45;1701767;82;21815;-73
2022/09/11 03:17:26;;;;;;;5.10;4.67;;;;;;;13.62;100.00;99087.22;1720965;82;21566;-72
2022/09/11 03:19:53;;;;;;;4.62;4.22;;;;;;;13.57;100.00;99096.66;1724417;82;21487;-73
2022/09/11 03:22:20;;;;;;;3.20;2.77;;;;;;;13.56;100.00;99092.38;1722771;82;21113;-73
2022/09/11 03:24:47;;;;;;;2.75;2.55;;;;;;;13.57;100.00;99095.33;1706234;82;21094;-72
2022/09/11 03:27:13;;;;;;;2.33;2.12;;;;;;;13.59;100.00;99092.98;1717700;82;21150;-73
2022/09/11 03:29:41;;;;;;;1.85;1.70;;;;;;;13.57;100.00;99099.34;1708494;82;21161;-72
2022/09/11 03:32:09;;;;;;;1.80;1.70;;;;;;;13.48;100.00;99109.07;1712916;82;21006;-73
2022/09/11 03:34:35;;;;;;;1.90;1.60;;;;;;;13.37;100.00;99105.16;1707953;82;21035;-72
2022/09/11 03:37:02;;;;;;;1.72;1.62;;;;;;;13.23;100.00;99104.77;1699520;82;21222;-72
2022/09/11 03:39:28;;;;;;;2.00;1.67;;;;;;;13.06;100.00;99105.14;1711328;82;21150;-73
2022/09/11 03:41:57;;;;;;;2.02;1.80;;;;;;;12.95;100.00;99107.05;1711010;82;21082;-74
2022/09/11 03:44:24;;;;;;;2.15;1.80;;;;;;;12.85;100.00;99114.59;1725938;82;20995;-72
2022/09/11 03:46:52;;;;;;;2.33;1.72;;;;;;;12.78;100.00;99116.70;1711269;82;21023;-74
2022/09/11 03:49:19;;;;;;;2.08;1.87;;;;;;;12.71;100.00;99120.34;1701377;82;21054;-73
2022/09/11 03:51:46;;;;;;;2.20;2.00;;;;;;;12.61;100.00;99131.36;1708080;82;21187;-72
2022/09/11 03:54:14;;;;;;;2.27;2.08;;;;;;;12.52;100.00;99123.23;1700664;82;21057;-74
2022/09/11 03:56:42;;;;;;;2.22;2.00;;;;;;;12.47;100.00;99130.98;1704631;82;21088;-76
2022/09/11 03:59:08;;;;;;;2.33;1.87;;;;;;;12.42;100.00;99138.23;1722948;82;21507;-73
2022/09/11 04:01:38;;;;;;;3.25;2.00;;;;;;;12.38;100.00;99139.62;1713820;82;21082;-72
2022/09/11 04:04:06;;;;;;;2.25;1.70;;;;;;;12.33;100.00;99134.89;1701392;82;21142;-74
2022/09/11 04:06:34;;;;;;;2.22;1.70;;;;;;;12.29;100.00;99133.63;1727784;82;21042;-73
2022/09/11 04:09:02;;;;;;;2.12;1.50;;;;;;;12.26;100.00;99128.68;1706108;82;21058;-74
2022/09/11 04:11:30;;;;;;;2.35;2.12;;;;;;;12.25;100.00;99137.70;1723797;82;21043;-73
2022/09/11 04:13:59;;;;;;;2.08;1.80;;;;;;;12.21;100.00;99141.77;1708580;82;21527;-74
2022/09/11 04:16:25;;;;;;;3.45;1.82;;;;;;;12.17;100.00;99134.67;1690314;82;21794;-75
2022/09/11 04:18:54;;;;;;;2.80;1.85;;;;;;;12.13;100.00;99136.56;1703735;82;21038;-73
2022/09/11 04:21:23;;;;;;;2.77;1.92;;;;;;;12.10;100.00;99139.12;1707222;82;21034;-74
2022/09/11 04:23:59;;;;;;;1.70;1.60;;;;;;;12.10;100.00;99142.30;1725197;82;21594;-75
2022/09/11 04:26:21;;;;;;;3.65;1.42;;;;;;;12.08;100.00;99139.00;1677718;82;21602;-74
2022/09/11 04:28:50;;;;;;;2.45;1.50;;;;;;;12.08;100.00;99149.66;1719862;82;21114;-76
2022/09/11 04:31:17;;;;;;;1.95;1.65;;;;;;;12.07;100.00;99147.51;1710254;82;21103;-75
2022/09/11 04:33:44;;;;;;;1.67;1.57;;;;;;;12.06;100.00;99153.83;1697783;82;21629;-73
2022/09/11 04:36:16;;;;;;;3.17;1.70;;;;;;;12.05;100.00;99152.17;1714139;82;21059;-73
2022/09/11 04:38:44;;;;;;;1.30;1.20;;;;;;;12.08;100.00;99148.33;1728419;82;21083;-74
2022/09/11 04:41:12;;;;;;;1.40;1.30;;;;;;;12.11;100.00;99157.23;1727456;82;21273;-74
2022/09/11 04:43:40;;;;;;;1.82;1.72;;;;;;;12.11;100.00;99155.91;1702508;82;21046;-73
2022/09/11 04:46:15;;;;;;;3.45;1.50;;;;;;;12.11;100.00;99159.91;1696302;82;21026;-75
2022/09/11 04:48:52;;;;;;;1.98;1.35;;;;;;;12.12;100.00;99160.23;1713182;82;21019;-75
2022/09/11 04:51:30;;;;;;;1.52;1.32;;;;;;;12.11;100.00;99154.09;1711701;82;21097;-73
2022/09/11 04:53:58;;;;;;;1.60;1.50;;;;;;;12.12;100.00;99152.24;1714588;82;21145;-74
2022/09/11 04:56:29;;;;;;;2.12;1.85;;;;;;;12.14;100.00;99156.87;1727636;82;21090;-74
2022/09/11 04:59:03;;;;;;;3.22;1.47;;;;;;;12.15;100.00;99154.02;1714735;82;21086;-76
2022/09/11 05:01:31;;;;;;;1.72;1.55;;;;;;;12.23;100.00;99156.20;1708381;82;21118;-77
2022/09/11 05:04:00;;;;;;;2.22;1.20;;;;;;;12.29;100.00;99158.12;1708515;82;21098;-74
2022/09/11 05:06:29;;;;;;;1.70;1.40;;;;;;;12.31;100.00;99158.23;1723714;82;21613;-75
2022/09/11 05:09:03;;;;;;;8.60;1.92;;;;;;;12.30;100.00;99160.56;1712559;82;23420;-73
2022/09/11 05:11:32;;;;;;;2.30;1.50;;;;;;;12.33;100.00;99162.85;1713403;82;21554;-74
2022/09/11 05:13:59;;;;;;;1.57;1.37;;;;;;;12.32;100.00;99158.56;1712426;82;21010;-74
2022/09/11 05:16:28;;;;;;;1.90;1.40;;;;;;;12.34;100.00;99155.67;1722541;82;21081;-75
2022/09/11 05:18:55;;;;;;;1.95;1.50;;;;;;;12.31;100.00;99152.91;1707355;82;21569;-75
2022/09/11 05:21:23;;;;;;;2.40;1.35;;;;;;;12.28;100.00;99161.78;1685175;82;21668;-75
2022/09/11 05:23:52;;;;;;;1.37;1.27;;;;;;;12.28;100.00;99157.27;1705431;82;21677;-74
2022/09/11 05:26:22;;;;;;;2.10;1.50;;;;;;;12.32;100.00;99160.38;1712037;82;21074;-73
2022/09/11 05:28:54;;;;;;;2.67;1.10;;;;;;;12.33;100.00;99173.51;1720009;82;21148;-74
2022/09/11 05:31:20;;;;;;;1.05;1.05;;;;;;;12.34;100.00;99179.65;1731295;82;21145;-75
2022/09/11 05:33:47;;;;;;;2.22;1.30;;;;;;;12.34;100.00;99179.16;1708312;82;21598;-74
2022/09/11 05:36:18;;;;;;;1.50;1.40;;;;;;;12.35;100.00;99177.31;1706379;82;21069;-85
2022/09/11 05:38:46;;;;;;;4.17;1.52;;;;;;;12.25;100.00;99165.67;1716043;82;21075;-85
2022/09/11 05:41:14;;;;;;;1.55;1.45;;;;;;;12.30;100.00;99181.88;1708848;82;21054;-83
2022/09/11 05:43:41;;;;;;;2.05;1.20;;;;;;;12.28;100.00;99177.77;1717508;82;21969;-81
2022/09/11 05:46:12;;;;;;;2.30;1.27;;;;;;;12.27;100.00;99180.13;1710495;82;21124;-82
2022/09/11 05:48:39;;;;;;;2.05;1.15;;;;;;;12.24;100.00;99186.64;1716410;82;21058;-83
2022/09/11 05:51:11;;;;;;;1.87;1.17;;;;;;;12.23;99.43;99186.34;1720584;82;20998;-86
2022/09/11 05:53:39;;;;;;;2.08;1.40;;;;;;;12.19;98.56;99180.57;1723177;82;21048;-81
2022/09/11 05:56:15;;;;;;;2.55;1.65;;;;;;;12.16;99.75;99178.80;1723708;82;21488;-83
2022/09/11 05:58:43;;;;;;;1.57;1.30;;;;;;;12.16;99.32;99177.47;1717725;82;21042;-77
2022/09/11 06:01:13;;;;;;;11.28;8.50;;;;;;;12.16;99.67;99186.78;1724422;82;21010;-75
2022/09/11 06:03:42;;;;;;;3.40;1.90;;;;;;;12.15;98.42;99197.14;1713995;82;21518;-78
2022/09/11 06:06:11;;;;;;;1.67;1.57;;;;;;;12.16;98.40;99186.78;1717572;82;21614;-77
2022/09/11 06:08:41;;;;;;;2.87;1.35;;;;;;;12.16;98.61;99182.80;1716722;82;21232;-79
2022/09/11 06:11:10;;;;;;;1.85;1.35;;;;;;;12.16;98.38;99187.60;1704168;82;21196;-78
2022/09/11 06:13:40;;;;;;;1.45;1.35;;;;;;;12.19;98.05;99178.42;1711775;82;21062;-77
2022/09/11 06:16:13;;;;;;;1.85;1.60;;;;;;;12.18;97.99;99174.10;1708578;82;21018;-75
2022/09/11 06:18:41;;;;;;;2.83;1.50;;;;;;;12.19;98.41;99172.59;1720953;82;21051;-75
2022/09/11 06:21:13;;;;;;;1.30;1.20;;;;;;;12.21;98.30;99171.06;1730034;82;21218;-77
2022/09/11 06:23:41;;;;;;;1.87;1.45;;;;;;;12.18;97.79;99188.23;1649556;86;21558;-79
2022/09/11 06:26:10;;;;;;;1.20;1.10;;;;;;;12.18;96.55;99176.25;1716307;82;21253;-79
2022/09/11 06:28:38;;;;;;;2.05;1.47;;;;;;;12.21;97.38;99185.71;1714473;82;21046;-78
2022/09/11 06:31:07;;;;;;;2.55;1.40;;;;;;;12.23;97.04;99180.17;1711420;82;21058;-80
2022/09/11 06:33:35;;;;;;;1.50;1.40;;;;;;;12.26;97.87;99186.45;1711004;82;21136;-80
2022/09/11 06:36:09;;;;;;;1.42;1.30;;;;;;;12.30;96.89;99189.86;1709662;82;21129;-79
2022/09/11 06:38:38;;;;;;;1.85;1.50;;;;;;;12.33;97.13;99192.66;1711204;82;21077;-82
2022/09/11 06:41:11;;;;;;;1.90;1.50;;;;;;;12.36;95.75;99192.27;1707404;82;21015;-78
2022/09/11 06:43:40;;;;;;;2.27;1.57;;;;;;;12.36;96.62;99185.12;1711702;82;21062;-82
2022/09/11 06:46:13;;;;;;;1.67;1.57;;;;;;;12.43;96.18;99178.50;1715992;82;21128;-81
2022/09/11 06:48:41;;;;;;;2.25;1.65;;;;;;;12.48;96.02;99185.41;1716338;82;21169;-81
2022/09/11 06:51:13;;;;;;;1.70;1.60;;;;;;;12.54;96.40;99190.47;1714494;82;21113;-81
2022/09/11 06:53:40;;;;;;;1.70;1.60;;;;;;;12.65;96.36;99193.09;1732926;82;21014;-79
2022/09/11 06:56:11;;;;;;;1.92;1.50;;;;;;;12.71;94.16;99189.64;1707565;82;21038;-80
2022/09/11 06:58:40;;;;;;;1.47;1.20;;;;;;;12.74;95.31;99187.93;1719170;82;21150;-81
2022/09/11 07:01:14;;;;;;;1.77;1.32;;;;;;;12.87;94.93;99183.20;1712693;82;21008;-83
2022/09/11 07:03:45;;;;;;;2.52;1.52;;;;;;;12.97;94.50;99178.31;1714670;82;21025;-83
2022/09/11 07:06:14;;;;;;;2.98;1.40;;;;;;;13.00;90.12;99192.60;1687970;84;21067;-82
2022/09/11 07:08:42;;;;;;;1.55;1.40;;;;;;;12.93;89.53;99202.40;1708034;82;21007;-82
2022/09/11 07:11:11;;;;;;;1.67;1.57;;;;;;;12.90;89.00;99208.95;1724740;81;21177;-81
2022/09/11 07:13:40;;;;;;;2.08;1.40;;;;;;;12.92;91.41;99201.58;1733801;82;21031;-81
2022/09/11 07:16:09;;;;;;;1.52;1.32;;;;;;;12.94;91.65;99210.20;1725020;82;21009;-80
2022/09/11 07:18:40;;;;;;;2.00;1.85;;;;;;;13.01;90.80;99210.75;1703931;82;21049;-79
2022/09/11 07:21:20;;;;;;;1.57;1.47;;;;;;;13.07;90.07;99213.44;1708326;82;21083;-79
2022/09/11 07:23:51;;;;;;;2.77;1.30;;;;;;;13.14;90.95;99216.16;1708665;82;21151;-77
2022/09/11 07:26:20;;;;;;;2.35;1.87;;;;;;;13.20;89.50;99210.55;1708446;82;21086;-79
2022/09/11 07:28:50;;;;;;;1.40;1.30;;;;;;;13.24;89.35;99214.45;1708063;82;21553;-77
2022/09/11 07:31:20;;;;;;;22.32;17.10;;;;;;;13.27;89.81;99218.04;1718562;82;21041;-80
2022/09/11 07:33:47;;;;;;;2.35;2.15;;;;;;;13.23;88.30;99216.31;1713479;82;21042;-77
2022/09/11 07:36:19;;;;;;;3.65;1.82;;;;;;;13.16;89.17;99214.11;1713279;82;21503;-75
2022/09/11 07:38:48;;;;;;;2.10;1.80;;;;;;;13.20;89.85;99219.88;1711158;82;21066;-75
2022/09/11 07:41:16;;;;;;;1.92;1.80;;;;;;;13.23;88.97;99220.31;1705375;82;21093;-76
2022/09/11 07:43:45;;;;;;;2.42;2.02;;;;;;;13.23;88.62;99220.31;1710982;82;21097;-76
2022/09/11 07:46:12;;;;;;;6.37;2.02;;;;;;;13.28;88.26;99229.04;1707113;82;21164;-75
2022/09/11 07:48:39;;;;;;;2.37;1.75;;;;;;;13.32;87.62;99224.98;1708461;82;21104;-76
2022/09/11 07:51:08;;;;;;;2.52;1.75;;;;;;;13.29;88.93;99218.18;1696214;82;21109;-73
2022/09/11 07:53:40;;;;;;;2.25;2.00;;;;;;;13.31;88.98;99216.69;1709944;82;21090;-73
2022/09/11 07:56:10;;;;;;;2.40;1.62;;;;;;;13.27;89.19;99211.38;1710233;82;21015;-75
2022/09/11 07:58:39;;;;;;;3.50;2.08;;;;;;;13.32;89.35;99208.97;1701050;82;21062;-75
2022/09/11 08:01:10;;;;;;;2.15;1.95;;;;;;;13.36;90.10;99203.03;1720745;82;21867;-73
2022/09/11 08:03:37;;;;;;;2.22;2.02;;;;;;;13.47;90.08;99207.50;1711175;82;21047;-74
2022/09/11 08:06:07;;;;;;;2.35;2.15;;;;;;;13.52;87.96;99212.55;1724328;81;21053;-72
2022/09/11 08:08:36;;;;;;;2.17;1.95;;;;;;;13.47;87.60;99204.83;1704609;82;21042;-71
2022/09/11 08:11:07;;;;;;;2.30;1.95;;;;;;;13.33;88.57;99207.97;1713104;82;21057;-72
2022/09/11 08:13:36;;;;;;;1.80;1.70;;;;;;;13.37;89.80;99211.36;1718331;82;21275;-72
2022/09/11 08:16:04;;;;;;;2.30;2.10;;;;;;;13.47;89.91;99211.50;1744259;82;21041;-73
2022/09/11 08:18:34;;;;;;;2.27;2.08;;;;;;;13.53;90.21;99207.52;1718894;82;21047;-73
2022/09/11 08:21:08;;;;;;;2.47;2.22;;;;;;;13.52;89.13;99205.88;1693862;82;21109;-73
2022/09/11 08:23:37;;;;;;;1.90;1.80;;;;;;;13.61;89.73;99215.85;1735499;82;21061;-75
2022/09/11 08:26:14;;;;;;;2.30;2.10;;;;;;;13.67;89.10;99204.89;1705386;82;21325;-73
2022/09/11 08:28:44;;;;;;;2.67;2.20;;;;;;;13.70;89.57;99205.83;1730638;82;21530;-72
2022/09/11 08:31:13;;;;;;;2.62;2.42;;;;;;;13.75;88.87;99208.70;1721407;82;21130;-73
2022/09/11 08:33:39;;;;;;;2.80;2.60;;;;;;;13.76;89.43;99206.35;1748990;82;20994;-73
2022/09/11 08:36:09;;;;;;;2.80;2.60;;;;;;;13.81;88.26;99205.73;1727260;82;21123;-74
2022/09/11 08:38:37;;;;;;;2.67;2.47;;;;;;;13.83;87.83;99209.02;1738153;82;21284;-72
2022/09/11 08:41:32;;;;;;;4.22;3.35;;;;;;;13.80;86.96;99211.59;1728625;82;21062;-72
2022/09/11 08:44:17;;;;;;;3.05;2.75;;;;;;;13.70;86.94;99207.16;1729632;82;21061;-70
2022/09/11 08:46:47;;;;;;;;;;;;;;;13.74;87.81;99214.56;1723792;81;21025;-73
2022/09/11 08:49:34;;;;;;;3.60;3.37;;;;;;;13.79;85.82;99205.12;1718433;82;20244;-72
2022/09/11 08:52:01;;;;;;;5.15;3.20;;;;;;;13.74;86.76;99195.88;1737866;82;21152;-72
2022/09/11 08:54:32;;;;;;;4.00;3.58;;;;;;;13.74;87.13;99196.39;1736880;82;21178;-72
2022/09/11 08:57:22;;;;;;;3.72;3.42;;;;;;;13.88;87.00;99198.05;1741515;82;21041;-71
2022/09/11 09:00:17;;;;;;;4.28;3.87;;;;;;;14.00;86.09;99206.28;1740150;82;21096;-70
2022/09/11 09:03:32;;;;;;;4.87;3.90;;;;;;;13.98;84.14;99208.33;1733697;82;21486;-74
2022/09/11 09:06:27;;;;;;;3.70;3.40;;;;;;;13.82;83.83;99218.89;1725766;82;21537;-74
2022/09/11 09:09:17;;;;;;;4.65;3.85;;;;;;;13.81;83.90;99216.41;1735325;82;22028;-73
2022/09/11 09:12:04;;;;;;;3.77;3.25;;;;;;;13.76;84.82;99213.84;1726946;82;21541;-73
2022/09/11 09:14:45;;;;;;;4.25;3.55;;;;;;;13.92;86.44;99215.83;1720127;82;21057;-75
2022/09/11 09:17:19;;;;;;;3.60;3.30;;;;;;;14.10;86.76;99201.88;1719691;82;21033;-73
2022/09/11 09:19:59;;;;;;;4.45;4.05;;;;;;;14.30;86.83;99208.58;1723046;82;21118;-77
2022/09/11 09:22:34;;;;;;;4.22;3.67;;;;;;;14.45;87.40;99208.39;1725066;81;21093;-77
2022/09/11 09:25:06;;;;;;;4.03;3.65;;;;;;;14.64;86.21;99215.59;1719576;82;21002;-77
2022/09/11 09:27:38;;;;;;;4.83;4.42;;;;;;;14.65;85.82;99215.89;1719938;82;21090;-75
2022/09/11 09:30:10;;;;;;;3.98;3.67;;;;;;;14.63;84.74;99211.27;1721347;82;21573;-75
2022/09/11 09:32:44;;;;;;;3.90;3.60;;;;;;;14.63;84.34;99215.27;1727544;82;21257;-75
2022/09/11 09:35:39;;;;;;;3.70;3.40;;;;;;;14.64;85.47;99213.42;1729484;82;21075;-73
2022/09/11 09:38:15;;;;;;;3.92;3.60;;;;;;;14.66;84.14;99214.88;1734346;82;21045;-76
2022/09/11 09:41:14;;;;;;;3.65;3.35;;;;;;;14.64;84.22;99210.74;1725989;82;21074;-75
2022/09/11 09:43:59;;;;;;;4.12;3.55;;;;;;;14.54;83.68;99216.48;1729600;82;21041;-76
2022/09/11 09:46:41;;;;;;;4.78;4.37;;;;;;;14.59;84.60;99212.71;1748117;82;21022;-75
2022/09/11 09:49:13;;;;;;;4.53;4.20;;;;;;;14.65;84.66;99216.41;1729008;82;21561;-76
2022/09/11 09:51:40;;;;;;;4.90;4.50;;;;;;;14.68;83.91;99215.48;1735667;82;21100;-75
2022/09/11 09:54:09;;;;;;;4.08;3.77;;;;;;;14.63;84.43;99212.60;1722788;82;21061;-76
2022/09/11 09:56:36;;;;;;;4.35;3.77;;;;;;;14.79;85.53;99215.87;1728103;82;21062;-72
2022/09/11 09:59:14;;;;;;;4.65;4.25;;;;;;;14.89;85.63;99214.92;1730057;82;21847;-74
2022/09/11 10:01:53;;;;;;;4.58;4.20;;;;;;;14.98;84.10;99211.52;1720000;82;21062;-71
2022/09/11 10:04:26;;;;;;;4.05;3.75;;;;;;;15.02;83.87;99210.88;1727512;82;21037;-75
2022/09/11 10:07:13;;;;;;;6.33;5.22;;;;;;;15.16;83.81;99202.81;1732936;82;21011;-77
2022/09/11 10:09:48;;;;;;;4.97;4.58;;;;;;;15.26;82.54;99201.35;1745482;82;21061;-77
2022/09/11 10:12:20;;;;;;;5.50;5.10;;;;;;;15.26;80.93;99199.17;1732297;81;21230;-76
2022/09/11 10:14:58;;;;;;;4.95;4.55;;;;;;;15.26;80.71;99192.48;1726426;82;21044;-76
2022/09/11 10:17:32;;;;;;;6.65;4.40;;;;;;;15.27;79.67;99197.62;1713985;82;21109;-77
2022/09/11 10:20:24;;;;;;;6.05;5.55;;;;;;;15.26;80.20;99200.02;1715651;82;21181;-76
2022/09/11 10:22:51;;;;;;;5.53;5.03;;;;;;;15.27;79.60;99195.47;1700353;82;21073;-76
2022/09/11 10:25:26;;;;;;;5.58;5.17;;;;;;;15.24;80.59;99191.38;1711421;82;21148;-74
2022/09/11 10:28:07;;;;;;;5.45;4.65;;;;;;;15.40;81.01;99194.08;1706990;82;21034;-78
2022/09/11 10:30:48;;;;;;;5.70;5.15;;;;;;;15.54;80.04;99194.31;1700563;82;21530;-75
2022/09/11 10:33:31;;;;;;;6.75;6.15;;;;;;;15.57;76.70;99201.61;1725181;82;21041;-75
2022/09/11 10:35:59;;;;;;;5.13;4.73;;;;;;;15.39;76.54;99214.36;1724792;82;21014;-77
2022/09/11 10:38:46;;;;;;;5.37;4.97;;;;;;;15.24;78.20;99199.90;1730498;82;21167;-76
2022/09/11 10:41:18;;;;;;;6.50;6.00;;;;;;;15.32;78.60;99206.38;1711867;82;21021;-77
2022/09/11 10:43:50;;;;;;;6.70;6.20;;;;;;;15.38;79.87;99205.52;1712973;82;21502;-76
2022/09/11 10:46:36;;;;;;;6.70;6.17;;;;;;;15.34;79.03;99212.33;1698373;82;21038;-76
2022/09/11 10:49:20;;;;;;;6.85;6.35;;;;;;;15.29;77.98;99206.27;1699571;82;21030;-75
2022/09/11 10:52:09;;;;;;;7.92;7.33;;;;;;;15.16;78.52;99201.48;1734799;82;20991;-74
2022/09/11 10:55:06;;;;;;;7.53;6.70;;;;;;;15.02;78.97;99200.17;1725005;82;21101;-76
2022/09/11 10:57:56;;;;;;;6.12;5.62;;;;;;;15.00;79.49;99194.74;1696843;82;21027;-77
2022/09/11 11:00:26;;;;;;;7.10;6.50;;;;;;;15.08;79.30;99187.30;1696317;82;21022;-76
2022/09/11 11:02:57;;;;;;;6.85;6.33;;;;;;;15.11;79.00;99188.22;1716486;82;21037;-76
2022/09/11 11:05:56;;;;;;;7.08;6.47;;;;;;;15.07;78.16;99187.00;1722202;82;21241;-75
2022/09/11 11:08:58;;;;;;;7.62;6.92;;;;;;;15.04;78.26;99175.38;1703812;82;21065;-75
2022/09/11 11:11:57;;;;;;;7.10;6.53;;;;;;;15.12;77.97;99183.69;1724603;81;21042;-75
2022/09/11 11:14:47;;;;;;;7.58;7.00;;;;;;;15.26;78.03;99176.42;1736430;82;21582;-76
2022/09/11 11:17:47;;;;;;;6.78;6.17;;;;;;;15.29;77.42;99169.32;1728333;82;21069;-72
2022/09/11 11:20:46;;;;;;;7.53;6.92;;;;;;;15.33;77.06;99173.21;1740732;82;21790;-74
2022/09/11 11:23:35;;;;;;;7.03;6.53;;;;;;;15.42;76.94;99173.28;1693190;82;22115;-73
2022/09/11 11:26:07;;;;;;;7.90;7.30;;;;;;;15.41;76.09;99166.80;1737360;82;21535;-76
2022/09/11 11:29:02;;;;;;;7.60;7.00;;;;;;;15.37;76.44;99170.94;1746669;82;21037;-75
2022/09/11 11:31:43;;;;;;;7.08;6.47;;;;;;;15.42;77.38;99159.89;1719799;82;21608;-76
2022/09/11 11:34:33;;;;;;;6.65;6.05;;;;;;;15.73;77.13;99165.00;1741899;82;21209;-76
2022/09/11 11:37:16;;;;;;;7.35;6.62;;;;;;;15.85;74.34;99157.09;1742635;82;21098;-76
2022/09/11 11:39:58;;;;;;;6.53;6.03;;;;;;;15.81;75.23;99153.22;1729565;82;21088;-76
2022/09/11 11:42:28;;;;;;;8.03;7.33;;;;;;;15.99;76.35;99157.29;1747321;82;21077;-75
2022/09/11 11:44:59;;;;;;;7.55;6.95;;;;;;;16.11;75.19;99152.89;1738999;82;21046;-76
2022/09/11 11:47:33;;;;;;;7.83;7.12;;;;;;;16.09;74.88;99151.47;1743932;82;21716;-76
2022/09/11 11:50:28;;;;;;;6.70;6.12;;;;;;;16.03;74.63;99159.02;1739236;82;21013;-76
2022/09/11 11:53:27;;;;;;;7.90;7.20;;;;;;;16.06;74.64;99158.59;1722014;82;21049;-75
2022/09/11 11:56:21;;;;;;;6.95;6.35;;;;;;;16.04;74.91;99153.98;1737846;82;21507;-76
2022/09/11 11:58:56;;;;;;;7.20;6.60;;;;;;;15.90;73.53;99157.28;1723741;82;21085;-73
2022/09/11 12:01:37;;;;;;;6.67;6.17;;;;;;;15.62;74.07;99161.64;1733267;82;21159;-76